Time;durP1;ratioP1;P1;durP2;ratioP2;P2;SDS_P1;SDS_P2;PMS_P1;PMS_P2;Temp;Humidity;BMP_temperature;BMP_pressure;BME280_temperature;BME280_humidity;BME280_pressure;Samples;Min_cycle;Max_cycle;Signal;HPM_P1;HPM_P2
2022/05/14 00:00:54;;;;;;;3.90;1.90;;;15.60;99.90;;;15.96;66.80;101465.72;5153071;28;20061;-73
2022/05/14 00:03:30;;;;;;;4.00;1.90;;;15.70;99.80;;;15.96;66.83;101452.56;5144362;28;20047;-73
2022/05/14 00:06:04;;;;;;;2.35;1.73;;;15.70;99.80;;;15.96;67.00;101456.94;5143098;28;20047;-73
2022/05/14 00:08:37;;;;;;;3.05;2.03;;;15.60;99.90;;;15.95;67.11;101456.06;5144059;28;20046;-73
2022/05/14 00:14:00;;;;;;;2.70;1.73;;;15.60;99.90;;;15.88;67.50;101450.63;5144003;28;20411;-73
2022/05/14 00:16:35;;;;;;;5.50;1.92;;;15.50;99.90;;;15.85;67.54;101461.09;5144243;28;20049;-73
2022/05/14 00:19:10;;;;;;;3.08;1.95;;;15.50;99.90;;;15.77;67.56;101460.88;5144756;28;20052;-73
2022/05/14 00:21:42;;;;;;;3.38;2.00;;;15.40;99.90;;;15.68;68.01;101460.66;5143744;28;20038;-73
2022/05/14 00:24:14;;;;;;;3.58;1.98;;;15.40;99.90;;;15.61;68.42;101462.22;5143981;28;20049;-73
2022/05/14 00:26:46;;;;;;;3.08;1.77;;;15.30;99.90;;;15.54;68.65;101454.16;5143637;28;20053;-73
2022/05/14 00:29:18;;;;;;;2.85;2.00;;;15.30;99.90;;;15.47;68.95;101458.38;5144256;28;20059;-73
2022/05/14 00:31:50;;;;;;;3.75;1.80;;;15.20;99.90;;;15.40;69.09;101459.94;5143473;28;20047;-73
2022/05/14 00:34:24;;;;;;;2.70;2.25;;;15.10;99.90;;;15.32;69.58;101460.56;5095252;28;20503;-73
2022/05/14 00:36:56;;;;;;;3.80;1.92;;;15.00;99.90;;;15.23;69.60;101458.59;5146289;28;20047;-73
2022/05/14 00:39:28;;;;;;;3.22;1.90;;;14.90;99.90;;;15.17;69.93;101461.06;5143721;28;20144;-73
2022/05/14 00:42:00;;;;;;;2.97;1.83;;;14.90;99.90;;;15.14;70.18;101453.13;5143802;28;20411;-73
2022/05/14 00:44:32;;;;;;;4.38;2.33;;;14.80;99.90;;;15.15;70.29;101454.91;5143676;28;20122;-73
2022/05/14 00:47:11;;;;;;;1.95;1.70;;;14.90;99.90;;;15.14;69.99;101458.38;5143978;28;20053;-73
2022/05/14 00:49:45;;;;;;;2.25;1.90;;;14.90;99.90;;;15.13;69.99;101456.59;5143691;28;20077;-73
2022/05/14 00:52:19;;;;;;;;;;;14.80;99.90;;;15.10;69.91;101456.50;5143823;28;20056;-73
2022/05/14 00:55:00;;;;;;;3.88;1.92;;;14.80;99.90;;;15.07;69.79;101456.44;5143098;28;19922;-73
2022/05/14 00:57:37;;;;;;;3.85;1.92;;;14.80;99.90;;;15.04;69.98;101464.22;5143253;28;20055;-73
2022/05/14 01:00:19;;;;;;;5.70;2.40;;;14.70;99.90;;;15.02;69.75;101463.28;5143437;28;20214;-73
2022/05/14 01:02:52;;;;;;;2.70;1.65;;;14.70;99.90;;;15.00;69.86;101462.38;5141406;28;20130;-73
2022/05/14 01:05:27;;;;;;;3.92;2.10;;;14.70;99.90;;;14.98;69.63;101458.78;5142767;28;20138;-73
2022/05/14 01:08:02;;;;;;;;;;;14.70;99.90;;;14.99;69.43;101460.56;5143973;28;20050;-73
2022/05/14 01:10:42;;;;;;;3.80;2.33;;;14.70;99.90;;;15.02;69.52;101463.28;5142858;28;19926;-73
2022/05/14 01:13:15;;;;;;;3.17;1.50;;;14.70;99.90;;;15.02;69.43;101469.44;5142875;28;20046;-73
2022/05/14 01:15:54;;;;;;;3.50;2.03;;;14.70;99.90;;;14.98;69.59;101457.06;5143417;28;20506;-73
2022/05/14 01:18:29;;;;;;;3.20;1.90;;;14.70;99.90;;;14.93;69.60;101459.56;5143268;28;20051;-73
2022/05/14 01:21:07;;;;;;;3.13;1.85;;;14.70;99.90;;;14.90;69.90;101459.47;5143004;28;20046;-73
2022/05/14 01:26:42;;;;;;;2.30;1.77;;;14.60;99.90;;;14.81;70.05;101456.59;5071107;28;20052;-70
2022/05/14 01:29:19;;;;;;;2.20;1.60;;;14.50;99.90;;;14.77;70.48;101459.09;5143466;28;20518;-70
2022/05/14 01:31:53;;;;;;;2.85;1.83;;;14.50;99.90;;;14.73;70.66;101458.09;5143571;28;20047;-70
2022/05/14 01:34:28;;;;;;;2.30;1.70;;;14.40;99.90;;;14.68;70.69;101457.09;5143639;28;20043;-70
2022/05/14 01:37:01;;;;;;;2.08;1.60;;;14.40;99.90;;;14.62;70.79;101452.56;5143592;28;20076;-70
2022/05/14 01:39:33;;;;;;;3.22;1.70;;;14.40;99.90;;;14.57;71.08;101459.41;5143146;28;20455;-70
2022/05/14 01:42:08;;;;;;;4.50;2.10;;;14.30;99.90;;;14.51;71.35;101460.97;5143049;28;20401;-70
2022/05/14 01:44:40;;;;;;;2.95;1.80;;;14.20;99.90;;;14.43;71.60;101458.09;5143421;28;20061;-70
2022/05/14 01:47:13;;;;;;;2.63;1.95;;;14.20;99.90;;;14.37;72.04;101465.78;5143305;28;20051;-71
2022/05/14 01:49:45;;;;;;;3.25;2.05;;;14.10;99.90;;;14.31;72.00;101462.97;5143293;28;20493;-70
2022/05/14 01:52:17;;;;;;;2.70;1.70;;;14.10;99.90;;;14.26;72.31;101469.78;5142730;28;20151;-70
2022/05/14 01:54:49;;;;;;;2.85;1.73;;;14.00;99.90;;;14.22;72.49;101460.97;5143499;28;20043;-70
2022/05/14 01:57:22;;;;;;;3.55;1.92;;;14.00;99.90;;;14.18;72.98;101459.06;5143167;28;20046;-70
2022/05/14 01:59:54;;;;;;;2.75;1.85;;;13.90;99.90;;;14.13;73.25;101461.56;5143453;28;20476;-69
2022/05/14 02:02:26;;;;;;;2.90;1.73;;;13.90;99.90;;;14.08;72.99;101462.25;5142682;28;20047;-70
2022/05/14 02:04:58;;;;;;;2.47;1.75;;;13.80;99.90;;;14.04;73.43;101465.63;5143460;28;20498;-70
2022/05/14 02:07:30;;;;;;;3.45;1.92;;;13.80;99.90;;;13.97;73.76;101461.03;5146916;28;20571;-70
2022/05/14 02:10:02;;;;;;;5.85;1.95;;;13.70;99.90;;;13.92;73.85;101460.88;5147200;28;20141;-70
2022/05/14 02:12:37;;;;;;;3.50;1.73;;;13.70;99.90;;;13.90;74.16;101467.81;5145836;28;20047;-70
2022/05/14 02:15:11;;;;;;;3.00;1.83;;;13.70;99.90;;;13.90;74.04;101461.69;5142492;28;20468;-70
2022/05/14 02:17:43;;;;;;;3.15;1.65;;;13.70;99.90;;;13.85;74.17;101456.28;5146654;28;20415;-70
2022/05/14 02:20:15;;;;;;;2.72;1.92;;;13.60;99.90;;;13.80;74.33;101468.34;5146695;28;20065;-70
2022/05/14 02:22:46;;;;;;;3.33;1.73;;;13.60;99.90;;;13.76;74.32;101470.00;5146392;28;20047;-70
2022/05/14 02:25:20;;;;;;;3.17;1.90;;;13.60;99.90;;;13.75;74.70;101467.31;5146282;28;20491;-70
2022/05/14 02:27:53;;;;;;;3.97;1.95;;;13.50;99.90;;;13.74;74.66;101466.41;5146776;28;20069;-70
2022/05/14 02:30:25;;;;;;;4.70;2.17;;;13.50;99.90;;;13.72;74.57;101467.22;5147067;28;20046;-70
2022/05/14 02:32:57;;;;;;;5.78;2.40;;;13.50;99.90;;;13.65;74.65;101467.88;5146179;28;20057;-70
2022/05/14 02:35:29;;;;;;;2.92;1.73;;;13.40;99.90;;;13.61;74.63;101465.97;5146587;28;20053;-70
2022/05/14 02:38:02;;;;;;;3.42;1.90;;;13.40;99.90;;;13.55;74.75;101470.16;5146213;28;20057;-70
2022/05/14 02:40:34;;;;;;;3.28;2.05;;;13.30;99.90;;;13.50;74.62;101463.91;5146055;28;20046;-70
2022/05/14 02:43:07;;;;;;;3.50;2.03;;;13.30;99.90;;;13.46;74.99;101463.75;5146142;28;20049;-69
2022/05/14 02:45:40;;;;;;;2.67;2.30;;;13.20;99.90;;;13.42;75.25;101462.72;5146182;28;20411;-69
2022/05/14 02:48:12;;;;;;;2.78;2.10;;;13.20;99.90;;;13.39;75.12;101473.13;5146162;28;20046;-69
2022/05/14 02:50:44;;;;;;;3.35;2.20;;;13.20;99.90;;;13.36;75.26;101474.72;5146237;28;20051;-69
2022/05/14 02:53:17;;;;;;;4.35;1.98;;;13.10;99.90;;;13.32;75.51;101471.13;5146040;28;20059;-69
2022/05/14 02:55:49;;;;;;;3.00;1.70;;;13.10;99.90;;;13.28;75.86;101469.22;5146367;28;20055;-69
2022/05/14 03:01:08;;;;;;;3.25;1.80;;;13.00;99.90;;;13.21;75.73;101482.94;5144897;28;20412;-71
2022/05/14 03:03:41;;;;;;;3.38;2.15;;;13.00;99.90;;;13.17;76.10;101481.94;5145801;28;20449;-70
2022/05/14 03:06:13;;;;;;;2.40;1.52;;;13.00;99.90;;;13.16;76.04;101480.13;5145851;28;20051;-71
2022/05/14 03:08:45;;;;;;;3.60;1.90;;;13.00;99.90;;;13.14;75.91;101476.56;5145670;28;20054;-70
2022/05/14 03:11:17;;;;;;;2.55;1.58;;;12.90;99.90;;;13.11;75.88;101476.50;5145725;28;20063;-69
2022/05/14 03:13:50;;;;;;;2.78;1.75;;;12.90;99.90;;;13.10;75.85;101479.91;5145837;28;20043;-71
2022/05/14 03:16:22;;;;;;;5.15;2.00;;;12.90;99.90;;;13.08;76.20;101480.72;5145936;28;20146;-69
2022/05/14 03:18:55;;;;;;;2.70;1.70;;;12.90;99.90;;;13.04;76.35;101479.72;5144632;28;20138;-69
2022/05/14 03:21:27;;;;;;;3.22;2.22;;;12.80;99.90;;;13.02;76.21;101476.13;5145699;28;20406;-70
2022/05/14 03:23:59;;;;;;;3.03;2.00;;;12.80;99.90;;;12.99;76.17;101476.03;5145696;28;20051;-70
2022/05/14 03:26:31;;;;;;;3.42;1.70;;;12.80;99.90;;;12.94;76.20;101478.50;5145658;28;20500;-70
2022/05/14 03:29:04;;;;;;;3.35;1.52;;;12.70;99.90;;;12.91;76.62;101478.41;5145756;28;20492;-69
2022/05/14 03:31:37;;;;;;;5.80;2.60;;;12.70;99.90;;;12.89;76.29;101479.16;5145361;28;20415;-70
2022/05/14 03:34:11;;;;;;;3.22;1.50;;;12.70;99.90;;;12.86;76.63;101473.81;5145247;28;20138;-69
2022/05/14 03:36:43;;;;;;;3.83;1.60;;;12.70;99.90;;;12.84;76.61;101480.72;5145337;28;20086;-71
2022/05/14 03:39:15;;;;;;;2.42;1.50;;;12.60;99.90;;;12.81;76.55;101470.16;5145348;28;20055;-70
2022/05/14 03:41:47;;;;;;;3.47;1.95;;;12.60;99.90;;;12.80;76.94;101474.50;5145065;28;20110;-69
2022/05/14 03:44:21;;;;;;;2.63;1.73;;;12.60;99.90;;;12.77;76.91;101471.75;5145320;28;20500;-69
2022/05/14 03:46:53;;;;;;;3.00;1.63;;;12.60;99.90;;;12.74;76.80;101474.25;5145096;28;20506;-69
2022/05/14 03:49:25;;;;;;;5.20;1.80;;;12.50;99.90;;;12.69;77.05;101470.59;5145235;28;20408;-70
2022/05/14 03:51:57;;;;;;;2.10;1.33;;;12.50;99.90;;;12.65;77.07;101473.91;5144800;28;20057;-70
2022/05/14 03:54:29;;;;;;;3.17;1.60;;;12.50;99.90;;;12.65;77.17;101480.06;5145136;28;20049;-71
2022/05/14 03:57:01;;;;;;;2.72;1.58;;;12.50;99.90;;;12.64;77.11;101483.47;5145084;28;20050;-69
2022/05/14 03:59:35;;;;;;;1.90;1.40;;;12.50;99.90;;;12.65;77.43;101485.28;5144984;28;20460;-70
2022/05/14 04:02:08;;;;;;;3.60;1.60;;;12.50;99.90;;;12.64;77.32;101483.47;5144410;28;20055;-70
2022/05/14 04:04:40;;;;;;;2.75;1.70;;;12.50;99.90;;;12.61;77.19;101480.75;5144681;28;20057;-69
2022/05/14 04:07:12;;;;;;;3.03;1.60;;;12.40;99.90;;;12.59;77.50;101482.44;5144660;28;20510;-69
2022/05/14 04:09:44;;;;;;;3.08;1.55;;;12.40;99.90;;;12.58;77.38;101480.63;5144962;28;20050;-69
2022/05/14 04:12:16;;;;;;;2.78;1.40;;;12.40;99.90;;;12.56;77.30;101479.69;5144412;28;20484;-70
2022/05/14 04:14:49;;;;;;;3.95;1.60;;;12.40;99.90;;;12.53;77.19;101490.06;5144563;28;20047;-71
2022/05/14 04:17:21;;;;;;;1.67;1.45;;;12.40;99.90;;;12.54;77.37;101488.31;5144504;28;20060;-69
2022/05/14 04:19:53;;;;;;;3.25;1.30;;;12.30;99.90;;;12.52;77.42;101488.28;5144444;28;20050;-69
2022/05/14 04:22:25;;;;;;;2.15;1.35;;;12.30;99.90;;;12.52;77.80;101485.66;5144166;28;20056;-69
2022/05/14 04:24:57;;;;;;;2.88;1.52;;;12.30;99.90;;;12.52;77.73;101495.19;5144625;28;20046;-69
2022/05/14 04:27:29;;;;;;;3.08;1.73;;;12.40;99.90;;;12.50;77.90;101495.16;5144523;28;20051;-70
2022/05/14 04:30:04;;;;;;;3.85;1.92;;;12.30;99.90;;;12.49;77.92;101501.22;5144363;28;20078;-69
2022/05/14 04:32:36;;;;;;;2.83;1.52;;;12.30;99.90;;;12.48;77.69;101496.81;5143619;28;20047;-69
2022/05/14 04:35:09;;;;;;;2.72;1.60;;;12.40;99.90;;;12.48;77.82;101496.81;5144279;28;20047;-69
2022/05/14 04:37:41;;;;;;;2.30;1.70;;;12.30;99.90;;;12.49;77.98;101509.97;5144187;28;20050;-69
2022/05/14 04:40:14;;;;;;;3.25;1.80;;;12.30;99.90;;;12.53;78.35;101510.09;5238059;23;20060;-67
2022/05/14 04:42:47;;;;;;;3.67;1.67;;;12.30;99.90;;;12.53;78.34;101504.84;5184985;28;20471;-68
2022/05/14 04:45:20;;;;;;;4.75;1.83;;;12.40;99.90;;;12.55;78.54;101508.41;5185258;28;20546;-67
2022/05/14 04:47:52;;;;;;;2.83;1.70;;;12.40;99.90;;;12.58;78.38;101504.16;5184614;28;20050;-68
2022/05/14 04:50:25;;;;;;;5.18;1.70;;;12.40;99.90;;;12.62;78.17;101511.31;5184446;28;20052;-67
2022/05/14 04:52:57;;;;;;;4.22;1.80;;;12.40;99.90;;;12.66;78.24;101507.09;5192706;28;20076;-68
2022/05/14 04:55:29;;;;;;;3.80;1.92;;;12.50;99.90;;;12.71;78.32;101506.44;5184554;28;20048;-68
2022/05/14 04:58:01;;;;;;;3.45;2.30;;;12.50;99.90;;;12.79;77.99;101509.34;5184544;28;20132;-68
2022/05/14 05:00:35;;;;;;;5.28;2.63;;;12.60;99.90;;;12.94;78.25;101509.00;5185054;28;20053;-70
2022/05/14 05:03:19;;;;;;;4.72;2.70;;;12.70;99.90;;;13.17;78.36;101512.44;5184574;28;20136;-70
2022/05/14 05:05:54;;;;;;;5.75;3.13;;;12.90;99.90;;;13.48;77.58;101517.06;5184200;28;20165;-68
2022/05/14 05:08:29;;;;;;;6.05;3.08;;;13.10;99.90;;;13.82;76.82;101517.38;5184587;28;20128;-66
2022/05/14 05:11:01;;;;;;;6.45;3.00;;;13.40;99.90;;;14.24;75.15;101518.69;5184702;28;20068;-68
2022/05/14 05:13:35;;;;;;;6.30;3.10;;;13.80;99.90;;;14.67;72.86;101518.31;5184443;28;20045;-68
2022/05/14 05:16:09;;;;;;;7.28;3.45;;;14.20;99.90;;;14.99;69.94;101521.84;5184198;28;20049;-66
2022/05/14 05:18:41;;;;;;;5.57;3.33;;;14.50;99.90;;;15.23;68.50;101521.63;5184479;28;20420;-68
2022/05/14 05:21:13;;;;;;;5.03;2.97;;;14.80;99.90;;;15.45;67.57;101518.75;5184421;28;20050;-66
2022/05/14 05:23:45;;;;;;;9.50;3.28;;;15.00;99.90;;;15.60;67.02;101525.25;5184697;28;20049;-69
2022/05/14 05:26:17;;;;;;;5.20;3.30;;;15.20;99.90;;;15.73;66.42;101528.25;5184232;28;20410;-68
2022/05/14 05:28:49;;;;;;;6.88;3.28;;;15.30;99.90;;;15.88;66.06;101526.88;5184065;28;20501;-68
2022/05/14 05:31:23;;;;;;;5.25;3.15;;;15.50;99.90;;;16.07;65.41;101536.09;5184063;28;20188;-67
2022/05/14 05:33:55;;;;;;;6.47;2.72;;;15.60;99.90;;;16.33;64.59;101534.06;5183929;28;20052;-68
2022/05/14 05:36:27;;;;;;;6.68;3.53;;;15.80;99.70;;;16.65;63.22;101532.16;5184135;28;20403;-68
2022/05/14 05:38:59;;;;;;;5.85;2.95;;;16.10;99.00;;;16.94;61.76;101536.31;5183734;28;20064;-70
2022/05/14 05:41:31;;;;;;;5.53;2.80;;;16.40;98.20;;;17.23;60.66;101533.41;5187135;28;20136;-68
2022/05/14 05:44:04;;;;;;;5.03;2.72;;;16.60;97.60;;;17.59;59.61;101539.34;5188494;28;20564;-68
2022/05/14 05:46:37;;;;;;;7.05;2.85;;;16.90;97.00;;;17.98;57.10;101537.38;5188296;28;20054;-68
2022/05/14 05:49:09;;;;;;;4.47;2.95;;;17.20;95.20;;;18.37;55.21;101543.28;5188168;28;20413;-68
2022/05/14 05:51:41;;;;;;;6.10;2.53;;;17.60;93.90;;;18.74;54.03;101550.88;5188145;28;20046;-67
2022/05/14 05:57:04;;;;;;;5.90;2.20;;;18.20;91.80;;;19.05;52.10;101544.22;5188330;28;20258;-68
2022/05/14 05:59:36;;;;;;;5.25;2.25;;;18.40;90.70;;;19.11;51.53;101553.13;5195238;28;20049;-71
2022/05/14 06:02:09;;;;;;;3.65;2.03;;;18.50;90.00;;;19.07;51.33;101543.38;5187390;28;20556;-71
2022/05/14 06:04:41;;;;;;;5.82;2.40;;;18.40;88.90;;;19.02;50.22;101555.63;5187653;28;20476;-70
2022/05/14 06:07:13;;;;;;;7.38;2.40;;;18.40;86.60;;;18.95;49.13;101556.44;5188003;28;20411;-71
2022/05/14 06:09:46;;;;;;;5.30;1.75;;;18.40;84.20;;;18.97;49.13;101554.69;5187846;28;20045;-71
2022/05/14 06:12:18;;;;;;;4.70;1.58;;;18.30;83.60;;;19.15;49.26;101552.25;5187442;28;20491;-70
2022/05/14 06:14:51;;;;;;;3.40;1.40;;;18.50;84.00;;;19.31;48.38;101555.09;5187421;28;20505;-70
2022/05/14 06:17:24;;;;;;;4.50;2.08;;;18.60;82.50;;;19.56;47.48;101557.13;5187597;28;20072;-71
2022/05/14 06:19:56;;;;;;;8.15;1.73;;;18.80;80.90;;;19.78;47.34;101559.13;5187733;28;20052;-69
2022/05/14 06:22:28;;;;;;;4.05;1.70;;;19.00;80.80;;;19.98;46.73;101559.31;5187152;28;20054;-70
2022/05/14 06:25:00;;;;;;;2.80;1.35;;;19.20;79.20;;;20.21;46.86;101566.53;5187259;28;20050;-72
2022/05/14 06:27:32;;;;;;;5.38;1.70;;;19.40;79.50;;;20.32;46.54;101568.38;5187441;28;20045;-71
2022/05/14 06:30:06;;;;;;;5.45;1.52;;;19.50;78.90;;;20.10;45.86;101562.94;5187197;28;20046;-72
2022/05/14 06:32:39;;;;;;;4.95;1.58;;;19.40;76.80;;;20.16;45.12;101574.44;5186804;28;20056;-70
2022/05/14 06:35:11;;;;;;;5.55;1.63;;;19.40;75.90;;;20.33;44.64;101567.50;5186986;28;20052;-69
2022/05/14 06:37:45;;;;;;;4.45;1.50;;;19.60;75.00;;;20.51;44.12;101576.50;5186899;28;20057;-70
2022/05/14 06:40:17;;;;;;;3.65;1.55;;;19.70;74.10;;;20.70;43.80;101573.06;5186909;28;20060;-71
2022/05/14 06:42:49;;;;;;;4.03;1.45;;;19.90;73.30;;;20.83;44.34;101574.91;5186635;28;20050;-71
2022/05/14 06:45:21;;;;;;;4.72;1.58;;;20.10;74.10;;;21.04;44.09;101579.41;5186714;28;20050;-70
2022/05/14 06:47:55;;;;;;;5.03;1.38;;;20.20;73.70;;;21.35;43.09;101579.56;5186583;28;20050;-70
2022/05/14 06:50:29;;;;;;;6.50;1.98;;;20.50;72.40;;;21.59;42.80;101584.06;5187292;28;20060;-70
2022/05/14 06:53:04;;;;;;;7.38;2.40;;;20.70;71.50;;;21.81;42.50;101584.97;5185131;28;20049;-69
2022/05/14 06:55:38;;;;;;;5.25;1.63;;;20.90;71.00;;;22.13;41.24;101583.25;5186768;28;20049;-70
2022/05/14 06:58:13;;;;;;;;;;;21.20;69.40;;;22.37;40.10;101592.97;5186906;28;20050;-69
2022/05/14 07:00:46;;;;;;;6.07;1.55;;;21.50;67.00;;;22.53;39.32;101591.16;5186587;28;19922;-70
2022/05/14 07:09:00;;;;;;;4.32;1.42;;;21.80;65.50;;;22.59;39.80;101609.75;5186335;28;20191;-69
2022/05/14 07:11:34;;;;;;;5.63;1.92;;;21.80;65.70;;;22.73;39.32;101601.75;5186144;28;20049;-72
2022/05/14 07:14:06;;;;;;;3.83;1.30;;;21.90;65.00;;;22.58;39.65;101596.47;5185871;28;20046;-63
2022/05/14 07:16:39;;;;;;;3.17;1.60;;;21.80;65.30;;;22.55;39.81;101602.66;5203635;28;20045;-62
2022/05/14 07:19:13;;;;;;;4.75;1.88;;;21.80;65.30;;;22.72;39.60;101595.53;5196527;28;20465;-62
2022/05/14 07:21:47;;;;;;;4.63;2.00;;;21.90;65.00;;;23.02;38.89;101593.72;5183398;28;20133;-63
2022/05/14 07:24:23;;;;;;;4.47;1.80;;;22.10;64.30;;;23.28;38.06;101589.19;5185705;28;20414;-63
2022/05/14 07:26:57;;;;;;;2.03;1.20;;;22.30;63.00;;;23.33;37.95;101593.56;5185328;28;20056;-62
2022/05/14 07:29:30;;;;;;;3.53;1.65;;;22.40;62.80;;;23.38;37.90;101586.47;5186025;28;20056;-63
2022/05/14 07:32:03;;;;;;;4.13;1.65;;;22.50;62.50;;;23.33;37.56;101589.13;5185955;28;20629;-66
2022/05/14 07:34:36;;;;;;;4.78;1.60;;;22.50;62.00;;;23.45;37.79;101597.03;5186227;28;20553;-67
2022/05/14 07:37:16;;;;;;;4.97;1.73;;;22.50;62.30;;;23.59;37.78;101601.41;5185680;28;20042;-66
2022/05/14 07:39:51;;;;;;;3.63;1.38;;;22.70;62.80;;;23.76;37.18;101602.22;5185882;28;20083;-67
2022/05/14 07:42:29;;;;;;;4.03;1.55;;;22.80;61.50;;;23.82;37.05;101600.41;5185410;28;20481;-66
2022/05/14 07:45:05;;;;;;;5.82;1.55;;;22.90;61.00;;;23.81;37.01;101600.41;5186109;28;20483;-66
2022/05/14 07:47:39;;;;;;;3.85;1.50;;;22.90;61.00;;;23.76;37.25;101594.22;5185734;28;20060;-65
2022/05/14 07:50:14;;;;;;;5.97;1.45;;;22.80;61.30;;;23.63;37.80;101593.44;5185606;28;20045;-67
2022/05/14 07:52:46;;;;;;;3.72;1.30;;;22.70;61.50;;;23.56;37.53;101587.22;5184897;28;20141;-66
2022/05/14 07:55:18;;;;;;;4.72;1.60;;;22.60;61.40;;;23.53;37.58;101584.56;5186094;28;20100;-65
2022/05/14 07:57:51;;;;;;;5.75;1.60;;;22.50;61.40;;;23.44;37.88;101587.31;5186267;28;20359;-66
2022/05/14 08:00:23;;;;;;;4.55;1.65;;;22.40;61.80;;;23.63;38.21;101580.13;5185656;28;20134;-70
2022/05/14 08:02:56;;;;;;;6.75;1.70;;;22.50;62.50;;;23.91;36.91;101575.47;5185334;28;20077;-70
2022/05/14 08:05:29;;;;;;;4.20;1.40;;;22.60;61.30;;;24.22;36.48;101572.56;5185771;28;20143;-71
2022/05/14 08:08:02;;;;;;;3.42;1.30;;;22.80;61.20;;;24.47;35.99;101567.91;5185569;28;20550;-71
2022/05/14 08:10:34;;;;;;;5.50;1.58;;;22.90;60.50;;;24.75;35.57;101573.81;5185585;28;20148;-72
2022/05/14 08:13:06;;;;;;;3.92;1.55;;;23.00;60.50;;;25.15;35.49;101580.44;5185240;28;20474;-70
2022/05/14 08:15:38;;;;;;;2.80;1.60;;;23.20;61.00;;;25.63;34.65;101583.34;5185411;28;20048;-71
2022/05/14 08:18:10;;;;;;;3.33;1.30;;;23.40;60.20;;;26.08;33.64;101580.91;5184830;28;20056;-70
2022/05/14 08:20:45;;;;;;;2.92;1.20;;;23.60;59.60;;;26.71;33.05;101575.28;5190492;28;20041;-70
2022/05/14 08:26:05;;;;;;;6.55;1.42;;;24.20;59.20;;;28.19;31.20;101581.78;5142108;28;20050;-69
2022/05/14 08:28:37;;;;;;;3.35;1.13;;;24.60;58.60;;;29.10;29.86;101583.78;5185135;28;20082;-71
2022/05/14 08:31:09;;;;;;;3.53;1.40;;;25.00;57.60;;;30.05;28.16;101582.59;5185360;28;20079;-72
2022/05/14 08:33:41;;;;;;;4.00;1.30;;;25.60;56.20;;;31.11;26.74;101580.59;5185255;28;20555;-71
2022/05/14 08:36:14;;;;;;;2.22;0.93;;;26.30;55.20;;;32.11;24.81;101585.59;5185451;28;20054;-73
2022/05/14 08:38:46;;;;;;;3.63;1.20;;;27.10;52.50;;;32.99;23.90;101586.19;5185097;28;20137;-69
2022/05/14 08:41:19;;;;;;;3.80;1.13;;;27.90;51.30;;;33.46;23.46;101588.50;5186853;28;20112;-70
2022/05/14 08:43:55;;;;;;;3.72;1.10;;;28.60;50.30;;;33.97;22.62;101581.47;5191101;28;20077;-71
2022/05/14 08:46:28;;;;;;;2.83;1.20;;;29.10;49.10;;;34.54;21.97;101576.72;5185041;28;20049;-71
2022/05/14 08:49:08;;;;;;;3.63;1.10;;;29.80;48.20;;;34.84;21.51;101581.47;5185244;28;20483;-70
2022/05/14 08:51:47;;;;;;;2.40;1.02;;;30.20;47.40;;;35.08;21.52;101578.31;5185045;28;20053;-72
2022/05/14 08:54:20;;;;;;;3.80;1.20;;;30.40;46.90;;;35.44;20.73;101579.06;5185074;28;20053;-72
2022/05/14 08:57:01;;;;;;;3.60;1.08;;;30.80;46.20;;;35.44;20.94;101573.63;5184852;28;20525;-70
2022/05/14 08:59:54;;;;;;;3.00;0.95;;;30.90;46.70;;;35.66;21.11;101581.41;5184950;28;20049;-71
2022/05/14 09:02:33;;;;;;;2.83;1.33;;;31.10;46.10;;;35.63;20.86;101581.59;5184585;28;20046;-72
2022/05/14 09:05:09;;;;;;;3.50;1.08;;;31.10;45.50;;;35.75;20.44;101572.75;5146629;28;20050;-73
2022/05/14 09:07:43;;;;;;;2.90;1.23;;;31.20;45.20;;;35.91;20.53;101575.44;5179624;28;20056;-71
2022/05/14 09:10:30;;;;;;;3.65;1.17;;;31.30;44.80;;;35.78;20.23;101577.97;5182003;28;20092;-71
2022/05/14 09:13:12;;;;;;;5.63;1.20;;;31.40;44.50;;;35.34;20.92;101567.81;5184098;28;20096;-73
2022/05/14 09:15:48;;;;;;;3.53;0.90;;;31.30;44.40;;;34.65;21.17;101558.09;5183633;28;20050;-71
2022/05/14 09:18:24;;;;;;;2.65;1.20;;;30.90;44.70;;;33.78;21.89;101561.69;5184504;28;20136;-72
2022/05/14 09:21:01;;;;;;;3.67;1.13;;;30.60;44.90;;;32.89;23.08;101557.88;5184763;28;20562;-71
2022/05/14 09:23:42;;;;;;;3.92;1.40;;;30.00;45.50;;;32.08;24.05;101569.50;5184806;28;20497;-71
2022/05/14 09:26:19;;;;;;;5.40;1.10;;;29.60;46.10;;;31.18;24.26;101559.69;5192739;28;20281;-72
2022/05/14 09:28:54;;;;;;;3.55;1.40;;;29.20;45.40;;;30.06;24.86;101569.13;5192475;28;20060;-71
2022/05/14 09:31:32;;;;;;;1.83;0.88;;;28.60;46.20;;;29.15;26.09;101564.88;5194977;28;20046;-71
2022/05/14 09:34:08;;;;;;;2.20;1.13;;;28.00;46.30;;;28.40;26.83;101564.28;5204657;28;20053;-71
2022/05/14 09:36:40;;;;;;;2.78;1.08;;;27.40;46.80;;;27.93;28.06;101562.81;5198499;28;20056;-72
2022/05/14 09:39:16;;;;;;;3.80;1.00;;;27.00;47.80;;;27.67;29.22;101569.66;5184632;28;20056;-72
2022/05/14 09:41:52;;;;;;;3.42;1.00;;;26.70;49.10;;;27.58;29.61;101568.09;5184426;28;20049;-70
2022/05/14 09:44:26;;;;;;;1.33;0.82;;;26.60;49.60;;;27.50;29.74;101563.81;5184648;28;20072;-70
2022/05/14 09:47:09;;;;;;;2.22;1.00;;;26.40;49.60;;;27.41;29.85;101556.88;5184083;28;20056;-71
2022/05/14 09:49:54;;;;;;;1.90;1.10;;;26.40;50.00;;;27.38;30.20;101556.94;5184342;28;20091;-70
2022/05/14 09:52:30;;;;;;;3.63;1.15;;;26.30;50.40;;;27.33;30.14;101548.16;5184237;28;20050;-71
2022/05/14 09:55:08;;;;;;;3.83;1.10;;;26.20;50.20;;;27.14;30.18;101547.69;5184529;28;20056;-70
2022/05/14 09:57:48;;;;;;;2.35;1.10;;;26.10;50.80;;;26.99;30.62;101545.28;5184318;28;20479;-70
2022/05/14 10:00:24;;;;;;;4.22;1.02;;;26.00;50.60;;;26.85;30.49;101544.69;5184310;28;20096;-70
2022/05/14 10:03:22;;;;;;;3.50;1.20;;;25.90;50.40;;;26.66;30.77;101546.88;5184494;28;20136;-70
2022/05/14 10:06:03;;;;;;;2.08;1.13;;;25.80;50.70;;;26.54;31.08;101542.66;5180860;28;20050;-66
2022/05/14 10:08:54;;;;;;;3.92;1.52;;;25.70;51.00;;;26.52;31.92;101545.34;5184101;28;20050;-68
2022/05/14 10:11:32;;;;;;;4.05;1.30;;;25.60;51.70;;;26.59;31.40;101543.44;5186978;28;20498;-70
2022/05/14 10:14:37;;;;;;;5.35;1.40;;;25.60;51.30;;;26.63;31.85;101547.81;5205771;28;20136;-70
2022/05/14 10:17:37;;;;;;;2.80;1.30;;;25.60;51.90;;;26.73;32.21;101544.06;5173954;28;20048;-70
2022/05/14 10:20:34;;;;;;;4.70;1.20;;;25.70;52.40;;;26.64;32.15;101543.34;5187716;28;20530;-73
2022/05/14 10:27:10;;;;;;;3.33;1.35;;;25.50;52.40;;;26.07;33.47;101536.34;5129290;28;20847;-72
2022/05/14 10:29:58;;;;;;;3.80;1.60;;;25.20;53.30;;;25.86;33.52;101526.06;5187082;28;20096;-73
2022/05/14 10:32:33;;;;;;;3.50;1.30;;;25.00;53.10;;;25.86;34.39;101529.59;5187491;28;20048;-72
2022/05/14 10:35:15;;;;;;;3.05;1.30;;;24.90;54.30;;;26.00;34.14;101534.69;5187437;28;20487;-72
2022/05/14 10:37:51;;;;;;;3.60;1.35;;;25.00;54.40;;;26.14;34.00;101524.66;5187341;28;20053;-72
2022/05/14 10:40:30;;;;;;;5.45;1.60;;;25.10;54.20;;;26.17;34.07;101524.59;5200905;23;20043;-84
2022/05/14 10:43:31;;;;;;;3.67;1.40;;;25.20;54.40;;;26.24;34.12;101528.03;5172691;28;20516;-84
2022/05/14 10:46:09;;;;;;;3.22;1.80;;;25.30;54.30;;;26.29;34.02;101519.97;5174979;28;20416;-83
2022/05/14 10:48:50;;;;;;;3.30;1.35;;;25.30;54.40;;;26.36;34.46;101524.28;5170989;28;20106;-83
2022/05/14 10:51:26;;;;;;;6.38;1.52;;;25.40;54.80;;;26.32;33.93;101535.91;5155291;28;20207;-80
2022/05/14 10:54:00;;;;;;;5.53;2.00;;;25.30;54.20;;;26.19;34.24;101520.09;5153138;28;20467;-81
2022/05/14 10:56:36;;;;;;;4.15;1.30;;;25.30;54.20;;;26.19;34.23;101520.09;5152332;28;20074;-81
2022/05/14 10:59:13;;;;;;;2.95;1.40;;;25.30;54.20;;;26.28;33.86;101523.50;5152843;28;20050;-79
2022/05/14 11:02:02;;;;;;;3.33;1.30;;;25.30;54.10;;;26.32;34.29;101517.22;5154683;28;20051;-80
2022/05/14 11:04:47;;;;;;;3.30;1.35;;;25.40;54.40;;;26.38;34.15;101519.78;5153459;28;20051;-82
2022/05/14 11:07:30;;;;;;;2.10;1.13;;;25.40;54.50;;;26.48;34.10;101518.72;5154702;28;20059;-79